sensor_id;sensor_type;location;lat;lon;timestamp;P1;durP1;ratioP1;P2;durP2;ratioP2
24145;SDS011;12308;50.948;4.706;2023-05-14T00:01:19;125.53;;;72.63;;
24145;SDS011;12308;50.948;4.706;2023-05-14T00:03:45;131.13;;;73.80;;
24145;SDS011;12308;50.948;4.706;2023-05-14T00:06:11;137.30;;;73.38;;
24145;SDS011;12308;50.948;4.706;2023-05-14T00:08:36;136.15;;;74.78;;
24145;SDS011;12308;50.948;4.706;2023-05-14T00:11:02;128.73;;;74.75;;
24145;SDS011;12308;50.948;4.706;2023-05-14T00:13:28;145.75;;;74.13;;
24145;SDS011;12308;50.948;4.706;2023-05-14T00:15:53;139.32;;;76.07;;
24145;SDS011;12308;50.948;4.706;2023-05-14T00:18:19;144.52;;;75.85;;
24145;SDS011;12308;50.948;4.706;2023-05-14T00:20:45;139.57;;;76.15;;
24145;SDS011;12308;50.948;4.706;2023-05-14T00:23:10;139.20;;;76.78;;
24145;SDS011;12308;50.948;4.706;2023-05-14T00:25:36;132.77;;;77.18;;
24145;SDS011;12308;50.948;4.706;2023-05-14T00:28:02;149.02;;;78.70;;
24145;SDS011;12308;50.948;4.706;2023-05-14T00:30:28;136.80;;;75.63;;
24145;SDS011;12308;50.948;4.706;2023-05-14T00:32:54;138.38;;;77.53;;
24145;SDS011;12308;50.948;4.706;2023-05-14T00:35:20;147.73;;;79.65;;
24145;SDS011;12308;50.948;4.706;2023-05-14T00:37:46;142.52;;;78.40;;
24145;SDS011;12308;50.948;4.706;2023-05-14T00:40:11;150.70;;;80.35;;
24145;SDS011;12308;50.948;4.706;2023-05-14T00:42:38;145.57;;;79.72;;
24145;SDS011;12308;50.948;4.706;2023-05-14T00:45:05;148.88;;;83.50;;
24145;SDS011;12308;50.948;4.706;2023-05-14T00:47:31;139.57;;;79.95;;
24145;SDS011;12308;50.948;4.706;2023-05-14T00:49:59;162.68;;;81.40;;
24145;SDS011;12308;50.948;4.706;2023-05-14T00:52:25;148.18;;;80.75;;
24145;SDS011;12308;50.948;4.706;2023-05-14T00:54:51;153.88;;;82.10;;
24145;SDS011;12308;50.948;4.706;2023-05-14T00:57:18;157.45;;;84.85;;
24145;SDS011;12308;50.948;4.706;2023-05-14T00:59:45;150.88;;;83.68;;
24145;SDS011;12308;50.948;4.706;2023-05-14T01:02:11;158.32;;;85.25;;
24145;SDS011;12308;50.948;4.706;2023-05-14T01:04:37;156.68;;;85.55;;
24145;SDS011;12308;50.948;4.706;2023-05-14T01:07:11;152.75;;;83.22;;
24145;SDS011;12308;50.948;4.706;2023-05-14T01:09:50;164.52;;;85.38;;
24145;SDS011;12308;50.948;4.706;2023-05-14T01:12:55;166.75;;;87.07;;
24145;SDS011;12308;50.948;4.706;2023-05-14T01:15:33;160.13;;;83.35;;
24145;SDS011;12308;50.948;4.706;2023-05-14T01:18:08;158.68;;;85.90;;
24145;SDS011;12308;50.948;4.706;2023-05-14T01:20:36;162.13;;;85.78;;
24145;SDS011;12308;50.948;4.706;2023-05-14T01:23:02;160.23;;;87.18;;
24145;SDS011;12308;50.948;4.706;2023-05-14T01:25:29;166.48;;;87.95;;
24145;SDS011;12308;50.948;4.706;2023-05-14T01:28:14;159.23;;;87.55;;
24145;SDS011;12308;50.948;4.706;2023-05-14T01:30:56;174.20;;;88.45;;
24145;SDS011;12308;50.948;4.706;2023-05-14T01:33:28;161.80;;;88.07;;
24145;SDS011;12308;50.948;4.706;2023-05-14T01:35:55;173.50;;;87.95;;
24145;SDS011;12308;50.948;4.706;2023-05-14T01:38:22;169.55;;;89.82;;
24145;SDS011;12308;50.948;4.706;2023-05-14T01:40:49;173.80;;;88.18;;
24145;SDS011;12308;50.948;4.706;2023-05-14T01:43:16;167.43;;;88.53;;
24145;SDS011;12308;50.948;4.706;2023-05-14T01:45:42;170.52;;;90.45;;
24145;SDS011;12308;50.948;4.706;2023-05-14T01:48:08;170.23;;;87.47;;
24145;SDS011;12308;50.948;4.706;2023-05-14T01:50:34;177.32;;;89.53;;
24145;SDS011;12308;50.948;4.706;2023-05-14T01:53:00;180.55;;;90.90;;
24145;SDS011;12308;50.948;4.706;2023-05-14T01:55:26;175.95;;;90.90;;
24145;SDS011;12308;50.948;4.706;2023-05-14T01:57:51;180.45;;;93.05;;
24145;SDS011;12308;50.948;4.706;2023-05-14T02:00:18;182.43;;;91.55;;
24145;SDS011;12308;50.948;4.706;2023-05-14T02:02:44;183.73;;;94.93;;
24145;SDS011;12308;50.948;4.706;2023-05-14T02:05:10;182.40;;;89.90;;
24145;SDS011;12308;50.948;4.706;2023-05-14T02:07:36;191.10;;;93.05;;
24145;SDS011;12308;50.948;4.706;2023-05-14T02:10:02;183.70;;;91.15;;
24145;SDS011;12308;50.948;4.706;2023-05-14T02:12:29;198.32;;;94.50;;
24145;SDS011;12308;50.948;4.706;2023-05-14T02:14:54;193.73;;;93.72;;
24145;SDS011;12308;50.948;4.706;2023-05-14T02:17:20;187.40;;;94.22;;
24145;SDS011;12308;50.948;4.706;2023-05-14T02:19:46;194.75;;;92.97;;
24145;SDS011;12308;50.948;4.706;2023-05-14T02:22:11;195.85;;;92.25;;
24145;SDS011;12308;50.948;4.706;2023-05-14T02:24:37;197.77;;;95.47;;
24145;SDS011;12308;50.948;4.706;2023-05-14T02:27:03;201.13;;;95.53;;
24145;SDS011;12308;50.948;4.706;2023-05-14T02:29:29;187.88;;;94.20;;
24145;SDS011;12308;50.948;4.706;2023-05-14T02:31:55;202.05;;;96.50;;
24145;SDS011;12308;50.948;4.706;2023-05-14T02:34:20;212.27;;;98.35;;
24145;SDS011;12308;50.948;4.706;2023-05-14T02:36:47;202.13;;;91.72;;
24145;SDS011;12308;50.948;4.706;2023-05-14T02:39:13;210.77;;;96.57;;
24145;SDS011;12308;50.948;4.706;2023-05-14T02:41:38;225.55;;;97.93;;
24145;SDS011;12308;50.948;4.706;2023-05-14T02:44:04;213.57;;;99.63;;
24145;SDS011;12308;50.948;4.706;2023-05-14T02:46:30;226.82;;;99.07;;
24145;SDS011;12308;50.948;4.706;2023-05-14T02:48:56;205.15;;;96.00;;
24145;SDS011;12308;50.948;4.706;2023-05-14T02:51:22;232.77;;;98.72;;
24145;SDS011;12308;50.948;4.706;2023-05-14T02:53:48;222.05;;;99.32;;
24145;SDS011;12308;50.948;4.706;2023-05-14T02:56:14;208.90;;;97.78;;
24145;SDS011;12308;50.948;4.706;2023-05-14T02:58:40;217.45;;;97.18;;
24145;SDS011;12308;50.948;4.706;2023-05-14T03:01:06;202.43;;;93.47;;
24145;SDS011;12308;50.948;4.706;2023-05-14T03:03:32;210.63;;;97.18;;
24145;SDS011;12308;50.948;4.706;2023-05-14T03:05:59;209.65;;;96.50;;
24145;SDS011;12308;50.948;4.706;2023-05-14T03:08:24;218.85;;;98.90;;
24145;SDS011;12308;50.948;4.706;2023-05-14T03:10:50;220.43;;;96.78;;
24145;SDS011;12308;50.948;4.706;2023-05-14T03:13:16;216.52;;;95.97;;
24145;SDS011;12308;50.948;4.706;2023-05-14T03:15:44;211.13;;;95.95;;
24145;SDS011;12308;50.948;4.706;2023-05-14T03:18:11;210.13;;;92.93;;
24145;SDS011;12308;50.948;4.706;2023-05-14T03:20:37;216.43;;;95.47;;
24145;SDS011;12308;50.948;4.706;2023-05-14T03:23:02;228.60;;;98.55;;
24145;SDS011;12308;50.948;4.706;2023-05-14T03:25:28;212.55;;;95.32;;
24145;SDS011;12308;50.948;4.706;2023-05-14T03:27:54;212.93;;;95.00;;
24145;SDS011;12308;50.948;4.706;2023-05-14T03:30:20;221.50;;;97.35;;
24145;SDS011;12308;50.948;4.706;2023-05-14T03:32:46;220.40;;;94.85;;
24145;SDS011;12308;50.948;4.706;2023-05-14T03:35:11;230.50;;;97.15;;
24145;SDS011;12308;50.948;4.706;2023-05-14T03:37:37;227.75;;;97.97;;
24145;SDS011;12308;50.948;4.706;2023-05-14T03:40:03;234.18;;;97.65;;
24145;SDS011;12308;50.948;4.706;2023-05-14T03:42:29;233.00;;;97.40;;
24145;SDS011;12308;50.948;4.706;2023-05-14T03:44:55;226.40;;;98.10;;
24145;SDS011;12308;50.948;4.706;2023-05-14T03:47:21;231.48;;;96.75;;
24145;SDS011;12308;50.948;4.706;2023-05-14T03:49:46;237.35;;;97.30;;
24145;SDS011;12308;50.948;4.706;2023-05-14T03:52:12;234.52;;;100.43;;
24145;SDS011;12308;50.948;4.706;2023-05-14T03:54:37;222.95;;;95.93;;
24145;SDS011;12308;50.948;4.706;2023-05-14T03:57:05;231.23;;;97.22;;
24145;SDS011;12308;50.948;4.706;2023-05-14T03:59:31;234.15;;;96.40;;
24145;SDS011;12308;50.948;4.706;2023-05-14T04:01:56;231.15;;;94.93;;
24145;SDS011;12308;50.948;4.706;2023-05-14T04:04:22;229.60;;;95.15;;
24145;SDS011;12308;50.948;4.706;2023-05-14T04:06:48;230.73;;;93.90;;
24145;SDS011;12308;50.948;4.706;2023-05-14T04:09:13;232.02;;;94.63;;
24145;SDS011;12308;50.948;4.706;2023-05-14T04:11:39;235.15;;;95.55;;
24145;SDS011;12308;50.948;4.706;2023-05-14T04:14:05;233.43;;;94.40;;
24145;SDS011;12308;50.948;4.706;2023-05-14T04:16:31;244.30;;;93.32;;
24145;SDS011;12308;50.948;4.706;2023-05-14T04:18:56;233.43;;;97.15;;
24145;SDS011;12308;50.948;4.706;2023-05-14T04:21:22;222.10;;;94.03;;
24145;SDS011;12308;50.948;4.706;2023-05-14T04:23:48;233.68;;;94.82;;
24145;SDS011;12308;50.948;4.706;2023-05-14T04:26:14;233.80;;;94.32;;
24145;SDS011;12308;50.948;4.706;2023-05-14T04:28:40;230.13;;;93.97;;
24145;SDS011;12308;50.948;4.706;2023-05-14T04:31:06;229.00;;;88.97;;
24145;SDS011;12308;50.948;4.706;2023-05-14T04:33:31;226.88;;;95.63;;
24145;SDS011;12308;50.948;4.706;2023-05-14T04:35:57;219.15;;;92.97;;
24145;SDS011;12308;50.948;4.706;2023-05-14T04:38:23;220.20;;;92.13;;
24145;SDS011;12308;50.948;4.706;2023-05-14T04:40:48;221.13;;;92.70;;
24145;SDS011;12308;50.948;4.706;2023-05-14T04:43:14;220.13;;;92.82;;
24145;SDS011;12308;50.948;4.706;2023-05-14T04:45:41;223.52;;;91.90;;
24145;SDS011;12308;50.948;4.706;2023-05-14T04:48:07;197.23;;;86.00;;
24145;SDS011;12308;50.948;4.706;2023-05-14T04:50:33;203.00;;;86.38;;
24145;SDS011;12308;50.948;4.706;2023-05-14T04:52:59;199.57;;;85.20;;
24145;SDS011;12308;50.948;4.706;2023-05-14T04:55:25;192.88;;;85.40;;
24145;SDS011;12308;50.948;4.706;2023-05-14T04:57:51;195.07;;;84.82;;
24145;SDS011;12308;50.948;4.706;2023-05-14T05:00:17;193.80;;;85.47;;
24145;SDS011;12308;50.948;4.706;2023-05-14T05:02:43;195.50;;;85.70;;
24145;SDS011;12308;50.948;4.706;2023-05-14T05:05:09;194.93;;;85.28;;
24145;SDS011;12308;50.948;4.706;2023-05-14T05:07:34;199.05;;;83.82;;
24145;SDS011;12308;50.948;4.706;2023-05-14T05:10:00;202.77;;;86.18;;
24145;SDS011;12308;50.948;4.706;2023-05-14T05:12:26;177.85;;;82.25;;
24145;SDS011;12308;50.948;4.706;2023-05-14T05:14:55;177.68;;;79.25;;
24145;SDS011;12308;50.948;4.706;2023-05-14T05:17:21;183.18;;;81.88;;
24145;SDS011;12308;50.948;4.706;2023-05-14T05:19:47;171.57;;;76.80;;
24145;SDS011;12308;50.948;4.706;2023-05-14T05:22:13;173.02;;;79.68;;
24145;SDS011;12308;50.948;4.706;2023-05-14T05:24:39;166.25;;;78.28;;
24145;SDS011;12308;50.948;4.706;2023-05-14T05:27:05;162.40;;;74.55;;
24145;SDS011;12308;50.948;4.706;2023-05-14T05:29:31;165.43;;;76.00;;
24145;SDS011;12308;50.948;4.706;2023-05-14T05:31:57;159.48;;;75.10;;
24145;SDS011;12308;50.948;4.706;2023-05-14T05:34:23;170.95;;;78.00;;
24145;SDS011;12308;50.948;4.706;2023-05-14T05:36:48;175.25;;;76.20;;
24145;SDS011;12308;50.948;4.706;2023-05-14T05:39:15;164.77;;;75.88;;
24145;SDS011;12308;50.948;4.706;2023-05-14T05:41:41;172.80;;;77.30;;
24145;SDS011;12308;50.948;4.706;2023-05-14T05:44:07;167.18;;;77.22;;
24145;SDS011;12308;50.948;4.706;2023-05-14T05:46:33;159.48;;;76.05;;
24145;SDS011;12308;50.948;4.706;2023-05-14T05:48:59;158.77;;;75.15;;
24145;SDS011;12308;50.948;4.706;2023-05-14T05:51:24;170.85;;;76.70;;
24145;SDS011;12308;50.948;4.706;2023-05-14T05:53:50;173.60;;;77.03;;
24145;SDS011;12308;50.948;4.706;2023-05-14T05:56:16;159.57;;;74.15;;
24145;SDS011;12308;50.948;4.706;2023-05-14T05:58:41;168.88;;;76.10;;
24145;SDS011;12308;50.948;4.706;2023-05-14T06:01:07;165.10;;;72.68;;
24145;SDS011;12308;50.948;4.706;2023-05-14T06:03:33;156.32;;;70.47;;
24145;SDS011;12308;50.948;4.706;2023-05-14T06:05:59;159.55;;;73.35;;
24145;SDS011;12308;50.948;4.706;2023-05-14T06:08:25;137.02;;;65.38;;
24145;SDS011;12308;50.948;4.706;2023-05-14T06:10:50;160.02;;;72.20;;
24145;SDS011;12308;50.948;4.706;2023-05-14T06:13:16;152.07;;;69.55;;
24145;SDS011;12308;50.948;4.706;2023-05-14T06:15:42;156.18;;;72.70;;
24145;SDS011;12308;50.948;4.706;2023-05-14T06:18:08;158.32;;;69.55;;
24145;SDS011;12308;50.948;4.706;2023-05-14T06:20:33;144.55;;;69.38;;
24145;SDS011;12308;50.948;4.706;2023-05-14T06:22:59;142.00;;;67.15;;
24145;SDS011;12308;50.948;4.706;2023-05-14T06:25:25;133.15;;;64.70;;
24145;SDS011;12308;50.948;4.706;2023-05-14T06:27:51;140.27;;;68.05;;
24145;SDS011;12308;50.948;4.706;2023-05-14T06:30:16;136.73;;;64.00;;
24145;SDS011;12308;50.948;4.706;2023-05-14T06:32:42;133.27;;;66.45;;
24145;SDS011;12308;50.948;4.706;2023-05-14T06:35:08;138.63;;;64.00;;
24145;SDS011;12308;50.948;4.706;2023-05-14T06:37:34;136.35;;;65.40;;
24145;SDS011;12308;50.948;4.706;2023-05-14T06:40:00;135.18;;;66.47;;
24145;SDS011;12308;50.948;4.706;2023-05-14T06:42:27;134.80;;;61.83;;
24145;SDS011;12308;50.948;4.706;2023-05-14T06:44:53;135.73;;;65.95;;
24145;SDS011;12308;50.948;4.706;2023-05-14T06:47:19;132.95;;;62.33;;
24145;SDS011;12308;50.948;4.706;2023-05-14T06:49:44;146.88;;;67.88;;
24145;SDS011;12308;50.948;4.706;2023-05-14T06:52:10;154.65;;;69.75;;
24145;SDS011;12308;50.948;4.706;2023-05-14T06:54:36;158.82;;;68.65;;
24145;SDS011;12308;50.948;4.706;2023-05-14T06:57:02;159.65;;;69.60;;
24145;SDS011;12308;50.948;4.706;2023-05-14T06:59:28;159.55;;;69.18;;
24145;SDS011;12308;50.948;4.706;2023-05-14T07:01:53;145.82;;;68.20;;
24145;SDS011;12308;50.948;4.706;2023-05-14T07:04:19;143.98;;;66.00;;
24145;SDS011;12308;50.948;4.706;2023-05-14T07:06:45;140.73;;;64.85;;
24145;SDS011;12308;50.948;4.706;2023-05-14T07:09:10;146.65;;;66.63;;
24145;SDS011;12308;50.948;4.706;2023-05-14T07:11:37;136.68;;;64.30;;
24145;SDS011;12308;50.948;4.706;2023-05-14T07:14:03;142.93;;;68.22;;
24145;SDS011;12308;50.948;4.706;2023-05-14T07:16:28;142.70;;;68.28;;
24145;SDS011;12308;50.948;4.706;2023-05-14T07:18:54;144.60;;;65.70;;
24145;SDS011;12308;50.948;4.706;2023-05-14T07:21:20;132.25;;;63.00;;
24145;SDS011;12308;50.948;4.706;2023-05-14T07:23:45;141.55;;;67.60;;
24145;SDS011;12308;50.948;4.706;2023-05-14T07:26:11;139.82;;;66.95;;
24145;SDS011;12308;50.948;4.706;2023-05-14T07:28:37;140.40;;;65.72;;
24145;SDS011;12308;50.948;4.706;2023-05-14T07:31:03;130.68;;;63.58;;
24145;SDS011;12308;50.948;4.706;2023-05-14T07:33:33;127.13;;;63.20;;
24145;SDS011;12308;50.948;4.706;2023-05-14T07:36:02;125.50;;;62.53;;
24145;SDS011;12308;50.948;4.706;2023-05-14T07:38:28;136.93;;;63.35;;
24145;SDS011;12308;50.948;4.706;2023-05-14T07:40:53;132.10;;;62.72;;
24145;SDS011;12308;50.948;4.706;2023-05-14T07:43:20;130.43;;;63.65;;
24145;SDS011;12308;50.948;4.706;2023-05-14T07:45:45;132.68;;;64.22;;
24145;SDS011;12308;50.948;4.706;2023-05-14T07:48:11;132.43;;;60.40;;
24145;SDS011;12308;50.948;4.706;2023-05-14T07:50:37;132.40;;;62.63;;
24145;SDS011;12308;50.948;4.706;2023-05-14T07:53:02;129.32;;;62.85;;
24145;SDS011;12308;50.948;4.706;2023-05-14T07:55:28;133.82;;;63.90;;
24145;SDS011;12308;50.948;4.706;2023-05-14T07:57:54;126.70;;;62.67;;
24145;SDS011;12308;50.948;4.706;2023-05-14T08:00:20;123.78;;;63.13;;
24145;SDS011;12308;50.948;4.706;2023-05-14T08:02:45;126.20;;;61.50;;
24145;SDS011;12308;50.948;4.706;2023-05-14T08:05:13;126.22;;;64.28;;
24145;SDS011;12308;50.948;4.706;2023-05-14T08:07:38;122.20;;;60.10;;
24145;SDS011;12308;50.948;4.706;2023-05-14T08:10:05;120.28;;;62.05;;
24145;SDS011;12308;50.948;4.706;2023-05-14T08:12:31;119.03;;;61.92;;
24145;SDS011;12308;50.948;4.706;2023-05-14T08:14:57;119.07;;;63.85;;
24145;SDS011;12308;50.948;4.706;2023-05-14T08:17:23;117.40;;;64.07;;
24145;SDS011;12308;50.948;4.706;2023-05-14T08:19:48;115.40;;;60.08;;
24145;SDS011;12308;50.948;4.706;2023-05-14T08:22:14;118.03;;;62.70;;
24145;SDS011;12308;50.948;4.706;2023-05-14T08:24:40;119.55;;;59.08;;
24145;SDS011;12308;50.948;4.706;2023-05-14T08:27:07;127.03;;;66.85;;
24145;SDS011;12308;50.948;4.706;2023-05-14T08:29:33;123.40;;;63.55;;
24145;SDS011;12308;50.948;4.706;2023-05-14T08:31:59;123.80;;;65.78;;
24145;SDS011;12308;50.948;4.706;2023-05-14T08:34:25;123.18;;;68.38;;
24145;SDS011;12308;50.948;4.706;2023-05-14T08:36:52;120.07;;;67.18;;
24145;SDS011;12308;50.948;4.706;2023-05-14T08:39:17;108.80;;;62.10;;
24145;SDS011;12308;50.948;4.706;2023-05-14T08:41:43;118.30;;;62.03;;
24145;SDS011;12308;50.948;4.706;2023-05-14T08:44:52;114.68;;;65.88;;
24145;SDS011;12308;50.948;4.706;2023-05-14T08:47:03;111.28;;;62.65;;
24145;SDS011;12308;50.948;4.706;2023-05-14T08:49:42;112.72;;;62.05;;
24145;SDS011;12308;50.948;4.706;2023-05-14T08:52:10;107.20;;;58.70;;
24145;SDS011;12308;50.948;4.706;2023-05-14T08:54:37;111.63;;;63.95;;
24145;SDS011;12308;50.948;4.706;2023-05-14T08:57:04;105.63;;;64.00;;
24145;SDS011;12308;50.948;4.706;2023-05-14T08:59:33;103.32;;;64.13;;
24145;SDS011;12308;50.948;4.706;2023-05-14T09:02:00;102.80;;;62.35;;
24145;SDS011;12308;50.948;4.706;2023-05-14T09:04:26;102.38;;;61.30;;
24145;SDS011;12308;50.948;4.706;2023-05-14T09:06:53;104.10;;;63.85;;
24145;SDS011;12308;50.948;4.706;2023-05-14T09:09:20;98.45;;;60.03;;
24145;SDS011;12308;50.948;4.706;2023-05-14T09:11:47;95.65;;;60.17;;
24145;SDS011;12308;50.948;4.706;2023-05-14T09:14:13;105.50;;;60.00;;
24145;SDS011;12308;50.948;4.706;2023-05-14T09:16:40;93.57;;;59.67;;
24145;SDS011;12308;50.948;4.706;2023-05-14T09:19:08;95.80;;;59.72;;
24145;SDS011;12308;50.948;4.706;2023-05-14T09:21:35;94.18;;;59.78;;
24145;SDS011;12308;50.948;4.706;2023-05-14T09:24:01;96.63;;;57.92;;
24145;SDS011;12308;50.948;4.706;2023-05-14T09:26:30;92.38;;;58.17;;
24145;SDS011;12308;50.948;4.706;2023-05-14T09:29:00;91.50;;;56.92;;
24145;SDS011;12308;50.948;4.706;2023-05-14T09:31:31;93.72;;;56.40;;
24145;SDS011;12308;50.948;4.706;2023-05-14T09:33:57;95.18;;;60.20;;
24145;SDS011;12308;50.948;4.706;2023-05-14T09:36:25;96.85;;;58.90;;
24145;SDS011;12308;50.948;4.706;2023-05-14T09:39:02;104.32;;;62.33;;
24145;SDS011;12308;50.948;4.706;2023-05-14T09:41:28;100.85;;;64.07;;
24145;SDS011;12308;50.948;4.706;2023-05-14T09:43:54;102.78;;;62.92;;
24145;SDS011;12308;50.948;4.706;2023-05-14T09:46:21;101.07;;;61.10;;
24145;SDS011;12308;50.948;4.706;2023-05-14T09:48:47;94.55;;;60.22;;
24145;SDS011;12308;50.948;4.706;2023-05-14T09:51:14;94.85;;;60.55;;
24145;SDS011;12308;50.948;4.706;2023-05-14T09:53:43;92.75;;;60.08;;
24145;SDS011;12308;50.948;4.706;2023-05-14T09:56:09;101.75;;;63.50;;
24145;SDS011;12308;50.948;4.706;2023-05-14T09:58:34;94.05;;;60.53;;
24145;SDS011;12308;50.948;4.706;2023-05-14T10:01:00;97.18;;;59.30;;
24145;SDS011;12308;50.948;4.706;2023-05-14T10:03:28;91.32;;;60.05;;
24145;SDS011;12308;50.948;4.706;2023-05-14T10:05:55;94.90;;;60.78;;
24145;SDS011;12308;50.948;4.706;2023-05-14T10:11:04;89.65;;;59.33;;
24145;SDS011;12308;50.948;4.706;2023-05-14T10:13:36;92.07;;;57.42;;
24145;SDS011;12308;50.948;4.706;2023-05-14T10:16:07;90.30;;;57.63;;
24145;SDS011;12308;50.948;4.706;2023-05-14T10:18:45;87.20;;;58.78;;
24145;SDS011;12308;50.948;4.706;2023-05-14T10:21:15;91.47;;;61.28;;
24145;SDS011;12308;50.948;4.706;2023-05-14T10:23:45;87.28;;;58.10;;
24145;SDS011;12308;50.948;4.706;2023-05-14T10:26:12;96.95;;;63.50;;
24145;SDS011;12308;50.948;4.706;2023-05-14T10:28:38;96.50;;;59.92;;
24145;SDS011;12308;50.948;4.706;2023-05-14T10:31:07;87.13;;;58.58;;
24145;SDS011;12308;50.948;4.706;2023-05-14T10:33:55;89.05;;;59.08;;
24145;SDS011;12308;50.948;4.706;2023-05-14T10:36:20;91.15;;;58.40;;
24145;SDS011;12308;50.948;4.706;2023-05-14T10:38:46;86.65;;;58.63;;
24145;SDS011;12308;50.948;4.706;2023-05-14T10:41:21;86.40;;;57.53;;
24145;SDS011;12308;50.948;4.706;2023-05-14T10:43:46;80.50;;;54.70;;
24145;SDS011;12308;50.948;4.706;2023-05-14T10:46:12;82.10;;;55.58;;
24145;SDS011;12308;50.948;4.706;2023-05-14T10:48:40;87.00;;;55.80;;
24145;SDS011;12308;50.948;4.706;2023-05-14T10:51:10;86.47;;;55.47;;
24145;SDS011;12308;50.948;4.706;2023-05-14T10:53:37;80.53;;;56.33;;
24145;SDS011;12308;50.948;4.706;2023-05-14T10:58:33;86.32;;;57.80;;
24145;SDS011;12308;50.948;4.706;2023-05-14T11:01:00;78.63;;;57.08;;
24145;SDS011;12308;50.948;4.706;2023-05-14T11:03:29;80.70;;;55.10;;
24145;SDS011;12308;50.948;4.706;2023-05-14T11:06:00;78.20;;;53.30;;
24145;SDS011;12308;50.948;4.706;2023-05-14T11:08:28;76.23;;;51.60;;
24145;SDS011;12308;50.948;4.706;2023-05-14T11:10:56;79.47;;;55.60;;
24145;SDS011;12308;50.948;4.706;2023-05-14T11:13:22;82.55;;;55.70;;
24145;SDS011;12308;50.948;4.706;2023-05-14T11:15:50;84.95;;;56.63;;
24145;SDS011;12308;50.948;4.706;2023-05-14T11:18:26;77.38;;;55.35;;
24145;SDS011;12308;50.948;4.706;2023-05-14T11:20:52;85.00;;;55.92;;
24145;SDS011;12308;50.948;4.706;2023-05-14T11:23:22;75.75;;;52.28;;
24145;SDS011;12308;50.948;4.706;2023-05-14T11:25:52;77.97;;;54.22;;
24145;SDS011;12308;50.948;4.706;2023-05-14T11:28:22;83.63;;;55.75;;
24145;SDS011;12308;50.948;4.706;2023-05-14T11:30:51;81.07;;;54.60;;
24145;SDS011;12308;50.948;4.706;2023-05-14T11:33:18;79.35;;;53.80;;
24145;SDS011;12308;50.948;4.706;2023-05-14T11:35:45;81.82;;;55.05;;
24145;SDS011;12308;50.948;4.706;2023-05-14T11:38:15;75.00;;;54.38;;
24145;SDS011;12308;50.948;4.706;2023-05-14T11:40:55;77.38;;;53.85;;
24145;SDS011;12308;50.948;4.706;2023-05-14T11:43:22;79.40;;;55.45;;
24145;SDS011;12308;50.948;4.706;2023-05-14T11:45:51;85.35;;;57.70;;
24145;SDS011;12308;50.948;4.706;2023-05-14T11:48:21;78.25;;;52.05;;
24145;SDS011;12308;50.948;4.706;2023-05-14T11:50:48;79.13;;;53.67;;
24145;SDS011;12308;50.948;4.706;2023-05-14T11:53:19;78.88;;;54.38;;
24145;SDS011;12308;50.948;4.706;2023-05-14T11:55:54;75.20;;;52.65;;
24145;SDS011;12308;50.948;4.706;2023-05-14T11:58:22;74.85;;;51.70;;
24145;SDS011;12308;50.948;4.706;2023-05-14T12:00:52;75.53;;;53.33;;
24145;SDS011;12308;50.948;4.706;2023-05-14T12:03:19;77.97;;;53.17;;
24145;SDS011;12308;50.948;4.706;2023-05-14T12:06:02;80.78;;;56.15;;
24145;SDS011;12308;50.948;4.706;2023-05-14T12:08:32;78.10;;;53.55;;
24145;SDS011;12308;50.948;4.706;2023-05-14T12:10:58;74.03;;;54.45;;
24145;SDS011;12308;50.948;4.706;2023-05-14T12:13:25;77.50;;;52.70;;
24145;SDS011;12308;50.948;4.706;2023-05-14T12:15:55;69.97;;;50.50;;
24145;SDS011;12308;50.948;4.706;2023-05-14T12:18:25;67.82;;;50.00;;
24145;SDS011;12308;50.948;4.706;2023-05-14T12:20:53;74.03;;;52.85;;
24145;SDS011;12308;50.948;4.706;2023-05-14T12:23:28;76.25;;;54.50;;
24145;SDS011;12308;50.948;4.706;2023-05-14T12:25:55;79.97;;;55.17;;
24145;SDS011;12308;50.948;4.706;2023-05-14T12:28:30;78.25;;;54.78;;
24145;SDS011;12308;50.948;4.706;2023-05-14T12:30:56;85.70;;;53.90;;
24145;SDS011;12308;50.948;4.706;2023-05-14T12:33:23;69.82;;;49.47;;
24145;SDS011;12308;50.948;4.706;2023-05-14T12:35:51;70.63;;;48.72;;
24145;SDS011;12308;50.948;4.706;2023-05-14T12:38:25;69.38;;;47.55;;
24145;SDS011;12308;50.948;4.706;2023-05-14T12:40:51;69.07;;;49.83;;
24145;SDS011;12308;50.948;4.706;2023-05-14T12:43:16;67.57;;;50.20;;
24145;SDS011;12308;50.948;4.706;2023-05-14T12:45:42;70.72;;;50.53;;
24145;SDS011;12308;50.948;4.706;2023-05-14T12:48:08;63.53;;;45.00;;
24145;SDS011;12308;50.948;4.706;2023-05-14T12:50:34;63.28;;;44.60;;
24145;SDS011;12308;50.948;4.706;2023-05-14T12:52:59;69.57;;;48.95;;
24145;SDS011;12308;50.948;4.706;2023-05-14T12:55:25;58.88;;;44.00;;
24145;SDS011;12308;50.948;4.706;2023-05-14T12:57:51;58.40;;;42.53;;
24145;SDS011;12308;50.948;4.706;2023-05-14T13:00:16;55.90;;;41.22;;
24145;SDS011;12308;50.948;4.706;2023-05-14T13:02:42;56.85;;;42.15;;
24145;SDS011;12308;50.948;4.706;2023-05-14T13:05:08;59.00;;;42.53;;
24145;SDS011;12308;50.948;4.706;2023-05-14T13:07:34;62.15;;;43.80;;
24145;SDS011;12308;50.948;4.706;2023-05-14T13:10:00;54.03;;;42.05;;
24145;SDS011;12308;50.948;4.706;2023-05-14T13:12:26;59.75;;;42.80;;
24145;SDS011;12308;50.948;4.706;2023-05-14T13:14:52;55.83;;;42.30;;
24145;SDS011;12308;50.948;4.706;2023-05-14T13:17:17;57.03;;;42.08;;
24145;SDS011;12308;50.948;4.706;2023-05-14T13:19:43;58.28;;;40.38;;
24145;SDS011;12308;50.948;4.706;2023-05-14T13:22:08;52.45;;;40.45;;
24145;SDS011;12308;50.948;4.706;2023-05-14T13:24:34;54.83;;;42.78;;
24145;SDS011;12308;50.948;4.706;2023-05-14T13:27:00;54.53;;;38.40;;
24145;SDS011;12308;50.948;4.706;2023-05-14T13:29:25;51.50;;;38.78;;
24145;SDS011;12308;50.948;4.706;2023-05-14T13:31:53;54.15;;;40.83;;
24145;SDS011;12308;50.948;4.706;2023-05-14T13:34:19;56.90;;;40.22;;
24145;SDS011;12308;50.948;4.706;2023-05-14T13:36:45;56.58;;;41.00;;
24145;SDS011;12308;50.948;4.706;2023-05-14T13:39:13;55.42;;;38.80;;
24145;SDS011;12308;50.948;4.706;2023-05-14T13:41:38;52.65;;;35.90;;
24145;SDS011;12308;50.948;4.706;2023-05-14T13:44:04;43.78;;;32.40;;
24145;SDS011;12308;50.948;4.706;2023-05-14T13:46:30;41.83;;;29.25;;
24145;SDS011;12308;50.948;4.706;2023-05-14T13:48:56;42.88;;;32.40;;
24145;SDS011;12308;50.948;4.706;2023-05-14T13:51:21;39.28;;;30.45;;
24145;SDS011;12308;50.948;4.706;2023-05-14T13:53:47;41.13;;;30.38;;
24145;SDS011;12308;50.948;4.706;2023-05-14T13:56:13;35.83;;;28.10;;
24145;SDS011;12308;50.948;4.706;2023-05-14T13:58:39;37.50;;;29.42;;
24145;SDS011;12308;50.948;4.706;2023-05-14T14:01:05;39.15;;;27.13;;
24145;SDS011;12308;50.948;4.706;2023-05-14T14:03:31;41.25;;;29.15;;
24145;SDS011;12308;50.948;4.706;2023-05-14T14:05:57;37.47;;;28.15;;
24145;SDS011;12308;50.948;4.706;2023-05-14T14:08:22;41.10;;;29.75;;
24145;SDS011;12308;50.948;4.706;2023-05-14T14:10:48;46.92;;;28.08;;
24145;SDS011;12308;50.948;4.706;2023-05-14T14:13:14;37.63;;;27.08;;
24145;SDS011;12308;50.948;4.706;2023-05-14T14:15:40;37.05;;;28.90;;
24145;SDS011;12308;50.948;4.706;2023-05-14T14:18:06;36.83;;;27.67;;